createdAt,value
2019-01-18T00:00:11.063Z,1.60
2019-01-18T00:02:39.710Z,1.50
2019-01-18T00:05:08.471Z,1.40
2019-01-18T00:07:37.137Z,1.40
2019-01-18T00:10:10.318Z,1.40
2019-01-18T00:12:38.974Z,1.50
2019-01-18T00:15:09.958Z,1.40
2019-01-18T00:17:38.597Z,1.30
2019-01-18T00:20:13.229Z,1.30
2019-01-18T00:22:41.874Z,1.20
2019-01-18T00:25:10.628Z,1.20
2019-01-18T00:27:39.598Z,1.30
2019-01-18T00:30:11.234Z,1.30
2019-01-18T00:32:39.983Z,1.30
2019-01-18T00:35:08.649Z,1.30
2019-01-18T00:37:37.321Z,1.30
2019-01-18T00:40:11.971Z,1.40
2019-01-18T00:42:40.665Z,1.30
2019-01-18T00:45:17.833Z,1.30
2019-01-18T00:47:46.481Z,1.30
2019-01-18T00:50:17.414Z,1.20
2019-01-18T00:52:46.087Z,1.20
2019-01-18T00:55:14.737Z,1.20
2019-01-18T00:57:43.893Z,1.20
2019-01-18T01:00:21.227Z,1.20
2019-01-18T01:02:50.196Z,1.30
2019-01-18T01:05:19.240Z,1.20
2019-01-18T01:07:48.301Z,1.30
2019-01-18T01:10:16.938Z,1.20
2019-01-18T01:12:45.612Z,1.20
2019-01-18T01:15:16.957Z,1.20
2019-01-18T01:17:45.842Z,1.20
2019-01-18T01:20:17.769Z,1.20
2019-01-18T01:22:46.430Z,1.20
2019-01-18T01:25:15.718Z,1.20
2019-01-18T01:27:44.558Z,1.20
2019-01-18T01:30:18.791Z,1.20
2019-01-18T01:32:47.457Z,1.20
2019-01-18T01:35:16.638Z,1.20
2019-01-18T01:37:45.297Z,1.20
2019-01-18T01:40:16.568Z,1.20
2019-01-18T01:42:45.222Z,1.20
2019-01-18T01:45:14.377Z,1.20
2019-01-18T01:47:43.172Z,1.20
2019-01-18T01:50:14.924Z,1.20
2019-01-18T01:52:43.699Z,1.30
2019-01-18T01:55:12.346Z,1.20
2019-01-18T01:57:41.012Z,1.30
2019-01-18T02:00:15.533Z,1.20
2019-01-18T02:02:44.321Z,1.20
2019-01-18T02:05:13.375Z,1.10
2019-01-18T02:07:42.021Z,1.20
2019-01-18T02:10:13.160Z,1.20
2019-01-18T02:12:41.823Z,1.20
2019-01-18T02:15:18.570Z,1.20
2019-01-18T02:17:47.322Z,1.20
2019-01-18T02:20:18.637Z,1.20
2019-01-18T02:22:47.854Z,1.20
2019-01-18T02:25:16.509Z,1.20
2019-01-18T02:27:45.783Z,1.10
2019-01-18T02:30:27.940Z,1.10
2019-01-18T02:32:56.703Z,1.10
2019-01-18T02:35:25.341Z,1.10
2019-01-18T02:37:54.001Z,1.20
2019-01-18T02:40:22.683Z,1.10
2019-01-18T02:42:51.337Z,1.10
2019-01-18T02:45:22.010Z,1.10
2019-01-18T02:47:50.645Z,1.00
2019-01-18T02:50:19.419Z,1.00
2019-01-18T02:52:48.254Z,1.00
2019-01-18T02:55:17.416Z,1.10
2019-01-18T02:57:46.078Z,1.00
2019-01-18T03:00:17.329Z,1.00
2019-01-18T03:02:46.013Z,1.00
2019-01-18T03:05:16.957Z,1.00
2019-01-18T03:07:45.804Z,1.00
2019-01-18T03:10:20.342Z,1.00
2019-01-18T03:12:49.018Z,1.00
2019-01-18T03:15:17.816Z,0.90
2019-01-18T03:17:46.553Z,0.80
2019-01-18T03:20:16.501Z,0.80
2019-01-18T03:22:45.175Z,0.70
2019-01-18T03:25:19.553Z,0.70
2019-01-18T03:27:48.224Z,0.70
2019-01-18T03:30:20.668Z,0.80
2019-01-18T03:32:49.390Z,0.80
2019-01-18T03:35:20.044Z,0.80
2019-01-18T03:37:48.917Z,1.00
2019-01-18T03:40:19.078Z,0.90
2019-01-18T03:42:48.335Z,0.90
2019-01-18T03:45:19.083Z,1.00
2019-01-18T03:47:48.151Z,1.00
2019-01-18T03:50:22.212Z,1.20
2019-01-18T03:52:50.975Z,1.30
2019-01-18T03:55:19.754Z,1.40
2019-01-18T03:57:48.397Z,1.40
2019-01-18T04:00:26.281Z,1.40
2019-01-18T04:02:53.590Z,1.30
2019-01-18T04:05:22.339Z,1.40
2019-01-18T04:07:51.023Z,1.40
2019-01-18T04:10:21.174Z,1.30
2019-01-18T04:12:49.845Z,1.30
2019-01-18T04:15:23.201Z,1.30
2019-01-18T04:17:51.845Z,1.10
2019-01-18T04:20:22.111Z,1.00
2019-01-18T04:22:50.954Z,1.10
2019-01-18T04:25:23.969Z,1.00
2019-01-18T04:27:52.609Z,1.10
2019-01-18T04:30:22.887Z,0.90
2019-01-18T04:32:51.633Z,0.60
2019-01-18T04:35:20.377Z,-1.00
2019-01-18T04:37:49.156Z,0.50
2019-01-18T04:40:23.040Z,0.30
2019-01-18T04:42:51.781Z,0.50
2019-01-18T04:45:20.758Z,0.30
2019-01-18T04:47:49.435Z,0.20
2019-01-18T04:50:20.202Z,0.10
2019-01-18T04:52:48.864Z,0.10
2019-01-18T04:55:18.035Z,0.20
2019-01-18T04:57:46.740Z,0.10
2019-01-18T05:00:20.803Z,0.10
2019-01-18T05:02:49.457Z,-0.10
2019-01-18T05:05:18.561Z,0.10
2019-01-18T05:07:47.224Z,0.00
2019-01-18T05:10:18.165Z,0.00
2019-01-18T05:12:46.841Z,0.00
2019-01-18T05:15:18.106Z,-0.10
2019-01-18T05:17:46.786Z,0.00
2019-01-18T05:20:15.541Z,-0.10
2019-01-18T05:22:44.218Z,-0.10
2019-01-18T05:25:13.898Z,-0.10
2019-01-18T05:27:42.551Z,-0.10
2019-01-18T05:30:20.265Z,-0.10
2019-01-18T05:32:49.006Z,0.10
2019-01-18T05:35:17.864Z,0.00
2019-01-18T05:37:46.569Z,-0.10
2019-01-18T05:40:17.022Z,-0.20
2019-01-18T05:42:45.909Z,-0.20
2019-01-18T05:45:16.752Z,-0.10
2019-01-18T05:47:45.422Z,-0.10
2019-01-18T05:50:16.358Z,0.00
2019-01-18T05:52:45.093Z,0.20
2019-01-18T05:55:13.856Z,0.00
2019-01-18T05:57:42.609Z,0.10
2019-01-18T06:00:15.446Z,0.00
2019-01-18T06:02:44.097Z,0.10
2019-01-18T06:05:15.750Z,0.10
2019-01-18T06:07:44.418Z,0.00
2019-01-18T06:10:13.603Z,0.10
2019-01-18T06:12:42.382Z,0.00
2019-01-18T06:15:11.234Z,0.10
2019-01-18T06:17:39.903Z,0.10
2019-01-18T06:20:14.482Z,-0.20
2019-01-18T06:22:43.141Z,-0.30
2019-01-18T06:25:11.819Z,0.00
2019-01-18T06:27:40.466Z,0.20
2019-01-18T06:30:17.893Z,0.10
2019-01-18T06:32:46.545Z,-0.10
2019-01-18T06:35:15.322Z,-0.10
2019-01-18T06:37:44.378Z,0.20
2019-01-18T06:40:21.433Z,0.00
2019-01-18T06:42:50.097Z,0.10
2019-01-18T06:45:21.170Z,0.20
2019-01-18T06:47:49.827Z,0.20
2019-01-18T06:50:19.605Z,0.20
2019-01-18T06:52:48.282Z,0.10
2019-01-18T06:55:16.922Z,0.00
2019-01-18T06:57:46.795Z,0.00
2019-01-18T07:00:26.696Z,0.20
2019-01-18T07:02:55.454Z,0.20
2019-01-18T07:05:24.113Z,0.20
2019-01-18T07:07:52.889Z,0.30
2019-01-18T07:10:23.487Z,0.00
2019-01-18T07:12:52.150Z,-0.20
2019-01-18T07:15:20.986Z,-0.10
2019-01-18T07:17:49.658Z,-0.20
2019-01-18T07:20:20.313Z,-0.30
2019-01-18T07:22:48.999Z,-0.10
2019-01-18T07:25:23.417Z,0.00
2019-01-18T07:27:52.115Z,0.10
2019-01-18T07:30:35.486Z,0.20
2019-01-18T07:33:04.857Z,0.20
2019-01-18T07:35:33.521Z,0.00
2019-01-18T07:38:02.271Z,0.10
2019-01-18T07:40:30.918Z,0.10
2019-01-18T07:42:59.576Z,0.00
2019-01-18T07:45:30.153Z,0.20
2019-01-18T07:47:58.822Z,0.10
2019-01-18T07:50:27.473Z,0.00
2019-01-18T07:52:56.246Z,0.10
2019-01-18T07:55:24.918Z,0.00
2019-01-18T07:57:53.597Z,0.10
2019-01-18T08:00:25.340Z,-0.20
2019-01-18T08:02:53.993Z,-0.20
2019-01-18T08:05:24.053Z,0.10
2019-01-18T08:07:52.726Z,0.10
2019-01-18T08:10:23.073Z,0.20
2019-01-18T08:12:52.053Z,0.30
2019-01-18T08:15:23.644Z,0.20
2019-01-18T08:17:52.312Z,0.10
2019-01-18T08:20:23.942Z,0.00
2019-01-18T08:22:52.892Z,-0.10
2019-01-18T08:25:21.558Z,0.00
2019-01-18T08:27:50.218Z,0.20
2019-01-18T08:30:24.259Z,0.20
2019-01-18T08:32:52.949Z,0.00
2019-01-18T08:35:22.670Z,0.00
2019-01-18T08:37:51.318Z,0.00
2019-01-18T08:40:28.544Z,0.00
2019-01-18T08:42:57.194Z,0.00
2019-01-18T08:45:38.337Z,0.10
2019-01-18T08:48:07.982Z,0.20
2019-01-18T08:50:36.750Z,0.40
2019-01-18T08:53:05.931Z,0.50
2019-01-18T08:55:34.587Z,0.50
2019-01-18T08:58:03.297Z,0.40
2019-01-18T09:00:32.650Z,0.40
2019-01-18T09:03:01.303Z,0.50
2019-01-18T09:05:30.373Z,0.40
2019-01-18T09:07:59.037Z,0.40
2019-01-18T09:10:30.644Z,0.30
2019-01-18T09:12:59.380Z,0.40
2019-01-18T09:15:28.143Z,0.30
2019-01-18T09:17:56.818Z,0.20
2019-01-18T09:20:27.481Z,0.20
2019-01-18T09:22:56.173Z,0.40
2019-01-18T09:25:25.521Z,0.60
2019-01-18T09:27:54.193Z,0.40
2019-01-18T09:30:32.224Z,0.50
2019-01-18T09:33:01.502Z,0.70
2019-01-18T09:35:30.258Z,0.60
2019-01-18T09:38:00.540Z,0.60
2019-01-18T09:40:31.221Z,0.70
2019-01-18T09:42:59.889Z,0.90
2019-01-18T09:45:28.791Z,1.00
2019-01-18T09:47:57.445Z,1.00
2019-01-18T09:50:28.790Z,1.00
2019-01-18T09:52:57.958Z,1.20
2019-01-18T09:55:26.625Z,1.30
2019-01-18T09:57:55.318Z,1.50
2019-01-18T10:00:35.558Z,1.40
2019-01-18T10:03:04.617Z,1.40
2019-01-18T10:05:33.300Z,1.40
2019-01-18T10:08:01.955Z,1.40
2019-01-18T10:10:30.740Z,1.50
2019-01-18T10:12:59.391Z,1.50
2019-01-18T10:15:36.745Z,1.40
2019-01-18T10:18:05.985Z,1.50
2019-01-18T10:20:34.663Z,1.50
2019-01-18T10:23:03.305Z,1.60
2019-01-18T10:25:32.090Z,1.60
2019-01-18T10:28:00.737Z,1.60
2019-01-18T10:30:30.590Z,1.70
2019-01-18T10:32:59.346Z,1.70
2019-01-18T10:35:28.911Z,1.60
2019-01-18T10:37:57.557Z,1.70
2019-01-18T10:40:26.437Z,1.80
2019-01-18T10:42:55.654Z,2.00
2019-01-18T10:45:24.630Z,2.50
2019-01-18T10:47:53.310Z,3.10
2019-01-18T10:50:30.342Z,3.30
2019-01-18T10:52:59.146Z,3.40
2019-01-18T10:55:27.923Z,3.70
2019-01-18T10:57:56.574Z,3.50
2019-01-18T11:00:27.450Z,3.30
2019-01-18T11:02:56.098Z,3.40
2019-01-18T11:05:25.371Z,3.20
2019-01-18T11:07:54.033Z,3.30
2019-01-18T11:10:22.696Z,3.20
2019-01-18T11:12:51.399Z,3.20
2019-01-18T11:15:25.179Z,3.20
2019-01-18T11:17:53.874Z,3.20
2019-01-18T11:20:25.540Z,3.40
2019-01-18T11:22:55.697Z,3.70
2019-01-18T11:25:24.373Z,3.70
2019-01-18T11:27:53.017Z,3.90
2019-01-18T11:30:21.882Z,4.20
2019-01-18T11:32:50.539Z,4.10
2019-01-18T11:35:19.213Z,4.30
2019-01-18T11:37:47.970Z,4.40
2019-01-18T11:40:19.438Z,4.20
2019-01-18T11:42:48.413Z,4.10
2019-01-18T11:45:17.473Z,4.20
2019-01-18T11:47:46.146Z,4.20
2019-01-18T11:50:17.741Z,4.00
2019-01-18T11:52:46.417Z,3.90
2019-01-18T11:55:15.069Z,3.70
2019-01-18T11:57:43.931Z,3.80
2019-01-18T12:00:18.182Z,3.90
2019-01-18T12:02:46.882Z,3.90
2019-01-18T12:05:15.534Z,3.70
2019-01-18T12:07:44.206Z,3.70
2019-01-18T12:10:27.210Z,3.90
2019-01-18T12:12:55.877Z,4.00
2019-01-18T12:15:24.841Z,3.90
2019-01-18T12:17:53.510Z,3.80
2019-01-18T12:20:30.509Z,3.80
2019-01-18T12:22:59.163Z,3.80
2019-01-18T12:25:27.909Z,3.60
2019-01-18T12:27:56.582Z,3.70
2019-01-18T12:30:32.917Z,3.70
2019-01-18T12:33:01.599Z,3.60
2019-01-18T12:35:30.238Z,3.50
2019-01-18T12:37:58.901Z,3.70
2019-01-18T12:40:27.664Z,3.50
2019-01-18T12:42:56.312Z,3.50
2019-01-18T12:45:25.873Z,3.50
2019-01-18T12:47:54.551Z,3.70
2019-01-18T12:50:26.235Z,3.50
2019-01-18T12:52:54.909Z,3.50
2019-01-18T12:55:23.701Z,3.60
2019-01-18T12:57:52.377Z,3.60
2019-01-18T13:00:23.921Z,3.70
2019-01-18T13:02:52.603Z,3.80
2019-01-18T13:05:26.917Z,3.60
2019-01-18T13:07:55.586Z,3.70
2019-01-18T13:10:24.322Z,3.50
2019-01-18T13:12:53.069Z,3.50
2019-01-18T13:15:30.562Z,3.50
2019-01-18T13:17:59.218Z,3.50
2019-01-18T13:20:27.968Z,3.50
2019-01-18T13:22:56.658Z,3.40
2019-01-18T13:25:25.305Z,3.50
2019-01-18T13:27:54.910Z,3.50
2019-01-18T13:30:23.553Z,3.50
2019-01-18T13:32:52.236Z,3.40
2019-01-18T13:35:20.890Z,3.40
2019-01-18T13:37:49.549Z,3.30
2019-01-18T13:40:22.867Z,3.30
2019-01-18T13:42:51.555Z,3.20
2019-01-18T13:45:24.270Z,3.30
2019-01-18T13:47:50.565Z,3.30
2019-01-18T13:50:19.844Z,3.30
2019-01-18T13:52:48.853Z,3.30
2019-01-18T13:55:26.349Z,3.20
2019-01-18T13:57:55.209Z,3.20
2019-01-18T14:00:23.973Z,3.20
2019-01-18T14:02:52.649Z,3.20
2019-01-18T14:05:21.305Z,3.30
2019-01-18T14:07:53.423Z,3.30
2019-01-18T14:10:32.995Z,3.30
2019-01-18T14:13:01.669Z,3.30
2019-01-18T14:15:30.313Z,3.20
2019-01-18T14:17:58.963Z,3.30
2019-01-18T14:20:28.642Z,3.30
2019-01-18T14:22:57.323Z,3.40
2019-01-18T14:25:26.144Z,3.20
2019-01-18T14:27:54.905Z,3.20
2019-01-18T14:30:25.835Z,3.30
2019-01-18T14:32:55.537Z,3.30
2019-01-18T14:35:24.949Z,3.30
2019-01-18T14:37:53.704Z,3.10
2019-01-18T14:40:22.357Z,3.10
2019-01-18T14:42:52.738Z,3.10
2019-01-18T14:45:27.162Z,3.10
2019-01-18T14:47:55.854Z,3.00
2019-01-18T14:50:24.636Z,3.00
2019-01-18T14:52:53.289Z,2.90
2019-01-18T14:55:21.968Z,2.80
2019-01-18T14:57:50.626Z,2.90
2019-01-18T15:00:32.573Z,2.90
2019-01-18T15:03:02.516Z,2.90
2019-01-18T15:05:31.480Z,3.10
2019-01-18T15:08:00.159Z,3.10
2019-01-18T15:10:28.839Z,3.10
2019-01-18T15:13:00.430Z,3.10
2019-01-18T15:15:29.213Z,2.90
2019-01-18T15:17:57.875Z,2.90
2019-01-18T15:20:28.752Z,2.70
2019-01-18T15:22:57.428Z,2.90
2019-01-18T15:25:26.092Z,2.90
2019-01-18T15:27:54.763Z,3.00
2019-01-18T15:30:25.630Z,2.80
2019-01-18T15:32:54.283Z,2.80
2019-01-18T15:35:25.761Z,2.70
2019-01-18T15:37:54.415Z,2.60
2019-01-18T15:40:28.338Z,2.70
2019-01-18T15:42:58.627Z,2.50
2019-01-18T15:45:27.497Z,2.50
2019-01-18T15:47:56.184Z,2.40
2019-01-18T15:50:30.087Z,2.30
2019-01-18T15:52:59.054Z,2.30
2019-01-18T15:55:27.733Z,2.20
2019-01-18T15:57:56.435Z,2.20
2019-01-18T16:00:27.661Z,2.00
2019-01-18T16:02:56.618Z,2.20
2019-01-18T16:05:25.585Z,2.10
2019-01-18T16:07:54.254Z,2.10
2019-01-18T16:10:22.907Z,2.10
2019-01-18T16:12:51.684Z,1.50
2019-01-18T16:15:29.417Z,1.30
2019-01-18T16:17:58.065Z,1.20
2019-01-18T16:20:26.726Z,1.10
2019-01-18T16:22:55.386Z,1.10
2019-01-18T16:25:26.533Z,1.20
2019-01-18T16:27:55.222Z,1.20
2019-01-18T16:30:25.482Z,1.10
2019-01-18T16:32:56.074Z,1.10
2019-01-18T16:35:24.724Z,0.90
2019-01-18T16:37:53.501Z,0.80
2019-01-18T16:40:30.706Z,0.70
2019-01-18T16:43:26.716Z,0.60
2019-01-18T16:45:55.386Z,0.60
2019-01-18T16:48:24.085Z,0.60
2019-01-18T16:50:52.726Z,0.80
2019-01-18T16:53:21.384Z,0.80
2019-01-18T16:55:50.053Z,0.80
2019-01-18T16:58:18.706Z,0.70
2019-01-18T17:00:53.023Z,0.70
2019-01-18T17:03:21.763Z,0.70
2019-01-18T17:05:50.470Z,0.80
2019-01-18T17:08:19.530Z,0.50
2019-01-18T17:10:48.174Z,0.50
2019-01-18T17:13:16.977Z,0.50
2019-01-18T17:15:45.637Z,0.50
2019-01-18T17:18:14.297Z,0.50
2019-01-18T17:20:47.433Z,0.30
2019-01-18T17:23:16.182Z,0.20
2019-01-18T17:25:44.889Z,0.10
2019-01-18T17:28:13.514Z,0.20
2019-01-18T17:30:42.223Z,0.20
2019-01-18T17:33:10.870Z,0.30
2019-01-18T17:35:45.556Z,0.20
2019-01-18T17:38:17.177Z,0.10
2019-01-18T17:40:48.772Z,0.20
2019-01-18T17:43:29.511Z,0.20
2019-01-18T17:46:12.893Z,0.20
2019-01-18T17:48:53.426Z,0.30
2019-01-18T17:51:40.219Z,0.10
2019-01-18T17:54:14.753Z,0.20
2019-01-18T17:57:09.208Z,0.20
2019-01-18T17:59:46.695Z,0.10
2019-01-18T18:02:21.195Z,0.00
2019-01-18T18:04:55.782Z,0.10
2019-01-18T18:07:31.632Z,1.50
2019-01-18T18:10:12.326Z,0.40
2019-01-18T18:13:02.066Z,0.50
2019-01-18T18:15:36.453Z,0.60
2019-01-18T18:18:20.122Z,0.40
2019-01-18T18:21:11.412Z,0.20
2019-01-18T18:23:54.629Z,0.10
2019-01-18T18:26:35.317Z,0.20
2019-01-18T18:29:21.559Z,0.30
2019-01-18T18:32:05.286Z,0.50
2019-01-18T18:34:36.913Z,0.70
2019-01-18T18:37:11.419Z,0.80
2019-01-18T18:39:52.306Z,0.70
2019-01-18T18:42:36.045Z,0.70
2019-01-18T18:45:42.941Z,0.80
2019-01-18T18:48:32.833Z,0.60
2019-01-18T18:51:25.200Z,0.50
2019-01-18T18:54:19.135Z,0.40
2019-01-18T18:57:09.141Z,0.10
2019-01-18T18:59:43.671Z,0.10
2019-01-18T19:02:18.164Z,-0.20
2019-01-18T19:05:04.299Z,-0.20
2019-01-18T19:07:45.076Z,0.00
2019-01-18T19:10:16.681Z,-0.10
2019-01-18T19:13:14.087Z,-0.20
2019-01-18T19:15:51.550Z,-0.10
2019-01-18T19:18:32.338Z,-0.10
2019-01-18T19:21:23.052Z,-0.20
2019-01-18T19:24:00.188Z,0.00
2019-01-18T19:26:37.325Z,0.10
2019-01-18T19:29:31.774Z,0.10
2019-01-18T19:32:09.349Z,0.20
2019-01-18T19:34:41.041Z,0.00
2019-01-18T19:37:31.977Z,-0.20
2019-01-18T19:40:20.307Z,-0.10
2019-01-18T19:42:54.815Z,0.00
2019-01-18T19:45:43.194Z,0.00
2019-01-18T19:48:20.634Z,-0.10
2019-01-18T19:51:10.377Z,0.00
2019-01-18T19:53:57.127Z,0.00
2019-01-18T19:56:37.946Z,-0.60
2019-01-18T19:59:15.447Z,-0.40
2019-01-18T20:01:49.839Z,-0.10
2019-01-18T20:04:30.222Z,-0.50
2019-01-18T20:07:10.718Z,-0.30
2019-01-18T20:09:54.364Z,-0.20
2019-01-18T20:12:40.882Z,-0.50
2019-01-18T20:15:15.427Z,-0.20
2019-01-18T20:18:09.915Z,-0.30
2019-01-18T20:20:50.774Z,-0.50
2019-01-18T20:23:54.586Z,-0.60
2019-01-18T20:26:35.390Z,-0.40
2019-01-18T20:29:09.852Z,-0.30
2019-01-18T20:31:44.236Z,-0.20
2019-01-18T20:34:24.488Z,-0.40
2019-01-18T20:37:00.428Z,-0.80
2019-01-18T20:40:03.643Z,-0.50
2019-01-18T20:42:41.330Z,-0.90
2019-01-18T20:45:31.296Z,-1.20
2019-01-18T20:48:17.526Z,-0.90
2019-01-18T20:51:08.778Z,-1.30
2019-01-18T20:53:49.376Z,-1.20
2019-01-18T20:56:23.971Z,-0.80
2019-01-18T20:59:04.162Z,-1.10
2019-01-18T21:02:11.037Z,-0.80
2019-01-18T21:05:02.500Z,-0.80
2019-01-18T21:07:40.274Z,-1.10
2019-01-18T21:10:14.879Z,-0.70
2019-01-18T21:12:58.757Z,-0.70
2019-01-18T21:16:02.529Z,-0.80
2019-01-18T21:18:36.583Z,-0.90
2019-01-18T21:21:20.237Z,-0.90
2019-01-18T21:24:00.758Z,-1.10
2019-01-18T21:26:44.517Z,-0.90
2019-01-18T21:29:27.835Z,-0.60
2019-01-18T21:32:11.513Z,-0.60
2019-01-18T21:34:46.238Z,-0.50
2019-01-18T21:37:26.942Z,-0.70
2019-01-18T21:40:19.781Z,-0.60
2019-01-18T21:43:08.097Z,-0.50
2019-01-18T21:46:09.829Z,-0.40
2019-01-18T21:49:10.585Z,-0.50
2019-01-18T21:52:15.692Z,-0.50
2019-01-18T21:55:06.998Z,-0.40
2019-01-18T21:57:44.556Z,-0.40
2019-01-18T22:00:19.052Z,-0.40
2019-01-18T22:02:59.247Z,-0.30
2019-01-18T22:05:33.715Z,-0.30
2019-01-18T22:08:11.351Z,-0.40
2019-01-18T22:10:55.114Z,-0.50
2019-01-18T22:13:32.214Z,-0.60
2019-01-18T22:16:24.798Z,-0.60
2019-01-18T22:19:25.175Z,-0.60
2019-01-18T22:22:05.765Z,-0.70
2019-01-18T22:24:49.450Z,-0.60
2019-01-18T22:27:30.085Z,-0.50
2019-01-18T22:30:04.622Z,-0.50
2019-01-18T22:32:36.365Z,-0.60
2019-01-18T22:35:20.171Z,-0.60
2019-01-18T22:37:57.616Z,-0.60
2019-01-18T22:40:48.727Z,-0.60
2019-01-18T22:43:32.399Z,-0.50
2019-01-18T22:46:39.286Z,-0.50
2019-01-18T22:49:16.683Z,-0.70
2019-01-18T22:51:48.318Z,-1.50
2019-01-18T22:54:25.937Z,-0.60
2019-01-18T22:57:03.126Z,-0.60
2019-01-18T22:59:46.835Z,-0.60
2019-01-18T23:02:27.755Z,-0.60
2019-01-18T23:05:18.909Z,-0.60
2019-01-18T23:08:10.276Z,-0.70
2019-01-18T23:11:05.805Z,-0.70
2019-01-18T23:13:46.502Z,-0.60
2019-01-18T23:16:24.033Z,-0.60
2019-01-18T23:19:04.450Z,-0.60
2019-01-18T23:21:54.296Z,-0.50
2019-01-18T23:24:50.037Z,-0.50
2019-01-18T23:27:50.605Z,-0.50
2019-01-18T23:30:37.350Z,-0.60
2019-01-18T23:33:08.983Z,-0.60
2019-01-18T23:35:49.677Z,-0.60
2019-01-18T23:38:24.321Z,-0.60
2019-01-18T23:41:17.261Z,-0.60
2019-01-18T23:44:06.786Z,-0.80
2019-01-18T23:46:41.728Z,-0.70
2019-01-18T23:49:21.588Z,-0.70
2019-01-18T23:52:11.518Z,-0.70
2019-01-18T23:55:16.710Z,-0.70
2019-01-18T23:57:54.289Z,-0.70
